createdAt,value
2018-10-11T00:00:59.554Z,64.65
2018-10-11T00:03:28.567Z,65.11
2018-10-11T00:05:57.611Z,64.43
2018-10-11T00:08:26.554Z,64.94
2018-10-11T00:10:55.551Z,64.00
2018-10-11T00:13:25.318Z,64.44
2018-10-11T00:15:54.436Z,64.47
2018-10-11T00:18:23.481Z,63.73
2018-10-11T00:20:52.690Z,64.93
2018-10-11T00:23:21.820Z,64.14
2018-10-11T00:25:50.852Z,64.64
2018-10-11T00:28:19.844Z,64.09
2018-10-11T00:30:48.879Z,64.01
2018-10-11T00:33:17.790Z,63.72
2018-10-11T00:35:46.819Z,63.46
2018-10-11T00:38:16.486Z,63.65
2018-10-11T00:40:45.612Z,63.46
2018-10-11T00:43:14.756Z,63.96
2018-10-11T00:45:43.824Z,63.72
2018-10-11T00:48:12.895Z,64.12
2018-10-11T00:50:41.855Z,63.67
2018-10-11T00:53:10.894Z,62.99
2018-10-11T00:55:39.846Z,64.06
2018-10-11T00:58:08.868Z,63.97
2018-10-11T01:00:37.946Z,63.96
2018-10-11T01:03:06.947Z,64.08
2018-10-11T01:05:35.981Z,64.51
2018-10-11T01:08:04.941Z,64.18
2018-10-11T01:10:33.880Z,63.04
2018-10-11T01:13:02.936Z,64.21
2018-10-11T01:15:31.911Z,63.92
2018-10-11T01:18:00.911Z,63.19
2018-10-11T01:20:30.440Z,64.17
2018-10-11T01:22:59.436Z,63.63
2018-10-11T01:25:28.425Z,64.80
2018-10-11T01:27:57.403Z,63.47
2018-10-11T01:30:26.489Z,63.63
2018-10-11T01:32:55.546Z,63.86
2018-10-11T01:35:24.983Z,63.94
2018-10-11T01:37:54.313Z,63.78
2018-10-11T01:40:23.305Z,64.68
2018-10-11T01:43:02.089Z,63.80
2018-10-11T01:45:31.199Z,64.47
2018-10-11T01:48:00.196Z,64.08
2018-10-11T01:50:29.388Z,64.78
2018-10-11T01:52:58.820Z,64.73
2018-10-11T01:55:29.018Z,64.64
2018-10-11T01:57:59.170Z,64.15
2018-10-11T02:00:28.166Z,63.58
2018-10-11T02:02:58.580Z,64.08
2018-10-11T02:05:28.151Z,65.26
2018-10-11T02:07:58.201Z,64.32
2018-10-11T02:10:28.310Z,65.01
2018-10-11T02:12:58.454Z,64.12
2018-10-11T02:15:28.141Z,64.94
2018-10-11T02:17:57.850Z,64.61
2018-10-11T02:20:27.497Z,64.64
2018-10-11T02:22:56.671Z,64.89
2018-10-11T02:25:25.693Z,65.77
2018-10-11T02:27:54.743Z,66.12
2018-10-11T02:30:23.845Z,66.25
2018-10-11T02:32:53.022Z,65.87
2018-10-11T02:35:22.067Z,65.66
2018-10-11T02:37:51.116Z,65.94
2018-10-11T02:40:20.170Z,66.40
2018-10-11T02:42:49.116Z,66.24
2018-10-11T02:45:18.156Z,66.34
2018-10-11T02:47:47.155Z,67.21
2018-10-11T02:50:16.138Z,65.94
2018-10-11T02:52:45.157Z,66.62
2018-10-11T02:55:20.666Z,66.97
2018-10-11T02:58:01.360Z,67.15
2018-10-11T03:00:30.919Z,67.50
2018-10-11T03:03:01.476Z,66.58
2018-10-11T03:05:31.207Z,66.38
2018-10-11T03:08:00.197Z,66.65
2018-10-11T03:10:29.503Z,67.53
2018-10-11T03:12:58.482Z,67.18
2018-10-11T03:15:27.475Z,67.66
2018-10-11T03:17:56.450Z,67.78
2018-10-11T03:20:25.449Z,68.02
2018-10-11T03:22:54.443Z,67.98
2018-10-11T03:25:23.435Z,68.62
2018-10-11T03:27:52.435Z,68.54
2018-10-11T03:30:21.403Z,68.26
2018-10-11T03:32:50.435Z,68.78
2018-10-11T03:35:19.448Z,68.50
2018-10-11T03:37:48.435Z,68.34
2018-10-11T03:40:17.434Z,68.58
2018-10-11T03:42:46.488Z,67.98
2018-10-11T03:45:15.474Z,68.31
2018-10-11T03:47:44.467Z,68.72
2018-10-11T03:50:13.476Z,68.83
2018-10-11T03:52:42.480Z,68.85
2018-10-11T03:55:11.491Z,68.72
2018-10-11T03:57:40.453Z,68.97
2018-10-11T04:00:09.470Z,68.79
2018-10-11T04:02:38.442Z,69.26
2018-10-11T04:05:07.464Z,69.34
2018-10-11T04:07:36.453Z,69.72
2018-10-11T04:10:05.483Z,70.06
2018-10-11T04:12:34.556Z,69.43
2018-10-11T04:15:03.522Z,69.72
2018-10-11T04:17:32.526Z,70.16
2018-10-11T04:20:01.529Z,69.68
2018-10-11T04:22:31.508Z,70.64
2018-10-11T04:25:00.501Z,70.63
2018-10-11T04:27:29.500Z,70.21
2018-10-11T04:29:58.541Z,70.52
2018-10-11T04:32:27.508Z,70.98
2018-10-11T04:34:56.499Z,71.09
2018-10-11T04:37:25.478Z,70.56
2018-10-11T04:39:54.499Z,70.92
2018-10-11T04:42:23.494Z,71.39
2018-10-11T04:44:52.495Z,71.84
2018-10-11T04:47:21.486Z,70.62
2018-10-11T04:49:50.484Z,70.41
2018-10-11T04:52:19.442Z,69.51
2018-10-11T04:54:48.488Z,70.02
2018-10-11T04:57:17.535Z,70.63
2018-10-11T04:59:46.696Z,69.88
2018-10-11T05:02:15.627Z,69.86
2018-10-11T05:04:44.672Z,70.12
2018-10-11T05:07:13.762Z,69.21
2018-10-11T05:09:42.737Z,69.11
2018-10-11T05:12:11.684Z,69.33
2018-10-11T05:14:40.950Z,69.31
2018-10-11T05:17:10.071Z,69.05
2018-10-11T05:19:39.811Z,68.69
2018-10-11T05:22:08.805Z,67.86
2018-10-11T05:24:37.877Z,68.06
2018-10-11T05:27:06.899Z,68.19
2018-10-11T05:29:35.988Z,67.84
2018-10-11T05:32:05.080Z,67.69
2018-10-11T05:34:34.009Z,67.22
2018-10-11T05:37:03.003Z,67.26
2018-10-11T05:39:32.016Z,67.15
2018-10-11T05:42:00.981Z,66.30
2018-10-11T05:44:30.022Z,66.69
2018-10-11T05:46:58.911Z,66.64
2018-10-11T05:49:27.942Z,67.29
2018-10-11T05:51:56.983Z,67.29
2018-10-11T05:54:26.062Z,66.01
2018-10-11T05:56:55.101Z,65.98
2018-10-11T05:59:24.143Z,64.52
2018-10-11T06:01:53.172Z,64.94
2018-10-11T06:04:22.197Z,63.84
2018-10-11T06:06:51.290Z,63.48
2018-10-11T06:09:20.502Z,63.24
2018-10-11T06:11:49.710Z,62.23
2018-10-11T06:14:18.658Z,61.21
2018-10-11T06:16:47.750Z,61.21
2018-10-11T06:19:16.757Z,60.95
2018-10-11T06:21:45.834Z,61.17
2018-10-11T06:24:14.838Z,59.94
2018-10-11T06:26:43.899Z,60.10
2018-10-11T06:29:12.894Z,59.61
2018-10-11T06:31:42.534Z,59.37
2018-10-11T06:34:11.602Z,59.89
2018-10-11T06:36:41.693Z,59.30
2018-10-11T06:39:11.527Z,58.06
2018-10-11T06:41:40.472Z,57.57
2018-10-11T06:44:10.017Z,57.66
2018-10-11T06:46:39.176Z,57.75
2018-10-11T06:49:08.566Z,57.55
2018-10-11T06:51:37.631Z,56.71
2018-10-11T06:54:06.750Z,57.05
2018-10-11T06:56:35.708Z,57.28
2018-10-11T06:59:04.722Z,57.23
2018-10-11T07:01:33.796Z,57.70
2018-10-11T07:04:02.792Z,57.92
2018-10-11T07:06:31.790Z,56.17
2018-10-11T07:09:00.796Z,55.07
2018-10-11T07:11:29.768Z,55.07
2018-10-11T07:13:59.831Z,55.19
2018-10-11T07:16:28.883Z,55.22
2018-10-11T07:18:58.111Z,54.85
2018-10-11T07:21:27.322Z,54.95
2018-10-11T07:23:56.342Z,54.28
2018-10-11T07:26:25.370Z,53.94
2018-10-11T07:28:54.419Z,52.44
2018-10-11T07:31:23.509Z,53.25
2018-10-11T07:33:52.529Z,52.31
2018-10-11T07:36:21.673Z,53.16
2018-10-11T07:38:50.695Z,52.32
2018-10-11T07:41:19.658Z,52.02
2018-10-11T07:43:48.668Z,51.57
2018-10-11T07:46:17.678Z,51.10
2018-10-11T07:48:46.662Z,50.90
2018-10-11T07:51:15.675Z,50.91
2018-10-11T07:53:44.680Z,50.21
2018-10-11T07:56:13.746Z,50.91
2018-10-11T07:58:42.782Z,50.37
2018-10-11T08:01:11.817Z,49.19
2018-10-11T08:03:40.827Z,49.77
2018-10-11T08:06:09.794Z,49.41
2018-10-11T08:08:38.767Z,49.53
2018-10-11T08:11:08.180Z,48.67
2018-10-11T08:13:37.053Z,47.87
2018-10-11T08:16:06.760Z,47.35
2018-10-11T08:18:35.747Z,47.19
2018-10-11T08:21:04.727Z,47.64
2018-10-11T08:23:33.928Z,47.34
2018-10-11T08:26:03.511Z,46.78
2018-10-11T08:28:31.980Z,47.04
2018-10-11T08:31:00.991Z,45.62
2018-10-11T08:33:30.004Z,46.16
2018-10-11T08:35:58.987Z,45.40
2018-10-11T08:38:28.045Z,46.50
2018-10-11T08:40:57.113Z,45.32
2018-10-11T08:43:26.620Z,45.65
2018-10-11T08:45:55.607Z,45.32
2018-10-11T08:48:24.669Z,44.18
2018-10-11T08:50:53.691Z,43.09
2018-10-11T08:53:22.651Z,43.41
2018-10-11T08:55:51.631Z,43.30
2018-10-11T08:58:20.651Z,43.26
2018-10-11T09:00:49.614Z,42.56
2018-10-11T09:03:18.700Z,42.42
2018-10-11T09:05:47.604Z,42.44
2018-10-11T09:08:16.588Z,42.99
2018-10-11T09:10:45.671Z,43.05
2018-10-11T09:13:14.661Z,43.76
2018-10-11T09:15:44.714Z,42.42
2018-10-11T09:18:13.745Z,41.86
2018-10-11T09:20:42.782Z,43.56
2018-10-11T09:23:11.858Z,42.98
2018-10-11T09:25:40.901Z,41.24
2018-10-11T09:28:10.100Z,41.93
2018-10-11T09:30:39.115Z,40.97
2018-10-11T09:33:08.252Z,41.20
2018-10-11T09:35:37.308Z,40.17
2018-10-11T09:38:06.308Z,39.08
2018-10-11T09:40:35.315Z,39.13
2018-10-11T09:43:04.454Z,39.12
2018-10-11T09:45:33.466Z,39.64
2018-10-11T09:48:02.537Z,38.64
2018-10-11T09:50:32.367Z,37.74
2018-10-11T09:53:01.396Z,37.25
2018-10-11T09:55:30.384Z,36.16
2018-10-11T09:57:59.439Z,36.86
2018-10-11T10:00:37.586Z,37.15
2018-10-11T10:03:06.630Z,35.87
2018-10-11T10:05:35.674Z,36.77
2018-10-11T10:08:04.629Z,37.63
2018-10-11T10:10:33.664Z,37.36
2018-10-11T10:13:02.619Z,37.85
2018-10-11T10:15:31.689Z,36.96
2018-10-11T10:18:00.648Z,35.34
2018-10-11T10:20:29.630Z,35.40
2018-10-11T10:22:58.666Z,34.94
2018-10-11T10:25:28.184Z,34.17
2018-10-11T10:27:56.696Z,34.77
2018-10-11T10:30:31.024Z,34.37
2018-10-11T10:33:00.007Z,34.60
2018-10-11T10:35:29.017Z,34.51
2018-10-11T10:37:58.091Z,34.88
2018-10-11T10:40:27.139Z,33.53
2018-10-11T10:42:56.495Z,33.73
2018-10-11T10:45:25.506Z,34.66
2018-10-11T10:47:54.522Z,34.46
2018-10-11T10:50:23.516Z,34.31
2018-10-11T10:52:52.555Z,33.45
2018-10-11T10:55:21.802Z,33.12
2018-10-11T10:57:50.779Z,33.95
2018-10-11T11:00:19.781Z,33.22
2018-10-11T11:02:48.783Z,34.02
2018-10-11T11:05:17.774Z,32.51
2018-10-11T11:07:46.858Z,32.04
2018-10-11T11:10:15.825Z,32.33
2018-10-11T11:12:44.851Z,33.62
2018-10-11T11:15:13.812Z,32.60
2018-10-11T11:17:42.869Z,32.16
2018-10-11T11:20:11.964Z,32.04
2018-10-11T11:22:40.912Z,32.63
2018-10-11T11:25:09.942Z,31.30
2018-10-11T11:27:38.923Z,31.36
2018-10-11T11:30:07.956Z,31.16
2018-10-11T11:32:36.907Z,29.86
2018-10-11T11:35:05.929Z,30.80
2018-10-11T11:37:35.852Z,30.00
2018-10-11T11:40:05.233Z,30.59
2018-10-11T11:42:34.254Z,29.71
2018-10-11T11:45:03.374Z,29.17
2018-10-11T11:47:32.562Z,29.45
2018-10-11T11:50:01.627Z,29.99
2018-10-11T11:52:30.653Z,31.38
2018-10-11T11:54:59.707Z,30.54
2018-10-11T11:57:28.698Z,31.10
2018-10-11T11:59:57.665Z,30.43
2018-10-11T12:02:26.705Z,29.98
2018-10-11T12:04:55.758Z,29.49
2018-10-11T12:07:24.748Z,29.03
2018-10-11T12:09:53.773Z,29.75
2018-10-11T12:13:06.625Z,29.86
2018-10-11T12:15:36.399Z,31.11
2018-10-11T12:18:06.212Z,29.93
2018-10-11T12:20:36.360Z,29.20
2018-10-11T12:23:06.463Z,28.46
2018-10-11T12:25:35.637Z,30.35
2018-10-11T12:28:04.644Z,30.31
2018-10-11T12:30:33.650Z,28.16
2018-10-11T12:33:02.644Z,28.73
2018-10-11T12:35:32.636Z,28.85
2018-10-11T12:38:01.651Z,29.43
2018-10-11T12:40:30.640Z,27.67
2018-10-11T12:42:59.629Z,27.96
2018-10-11T12:45:28.614Z,28.66
2018-10-11T12:47:57.646Z,29.52
2018-10-11T12:50:26.640Z,28.80
2018-10-11T12:52:55.590Z,30.29
2018-10-11T12:55:24.592Z,28.74
2018-10-11T12:57:53.615Z,29.24
2018-10-11T13:00:22.654Z,29.85
2018-10-11T13:02:51.789Z,29.47
2018-10-11T13:05:20.694Z,30.29
2018-10-11T13:07:50.158Z,29.94
2018-10-11T13:10:19.210Z,29.99
2018-10-11T13:12:48.178Z,30.34
2018-10-11T13:15:17.221Z,29.95
2018-10-11T13:17:46.262Z,30.06
2018-10-11T13:20:15.276Z,29.32
2018-10-11T13:22:44.248Z,29.53
2018-10-11T13:25:13.243Z,28.76
2018-10-11T13:27:42.226Z,28.73
2018-10-11T13:30:11.424Z,29.73
2018-10-11T13:32:40.421Z,29.95
2018-10-11T13:35:09.503Z,30.98
2018-10-11T13:37:38.409Z,30.11
2018-10-11T13:40:07.806Z,30.82
2018-10-11T13:42:36.805Z,30.31
2018-10-11T13:45:05.901Z,29.00
2018-10-11T13:47:37.881Z,28.76
2018-10-11T13:50:03.937Z,30.74
2018-10-11T13:52:32.884Z,30.71
2018-10-11T13:55:08.120Z,29.54
2018-10-11T13:57:31.436Z,28.76
2018-10-11T13:59:59.917Z,29.50
2018-10-11T14:02:28.930Z,28.72
2018-10-11T14:04:58.000Z,28.84
2018-10-11T14:07:27.990Z,29.96
2018-10-11T14:09:56.962Z,29.63
2018-10-11T14:12:25.985Z,29.15
2018-10-11T14:14:54.992Z,29.14
2018-10-11T14:17:23.990Z,29.43
2018-10-11T14:19:52.977Z,29.70
2018-10-11T14:22:21.979Z,29.03
2018-10-11T14:24:50.972Z,28.57
2018-10-11T14:27:19.939Z,29.35
2018-10-11T14:29:48.929Z,29.50
2018-10-11T14:32:17.935Z,29.70
2018-10-11T14:34:46.903Z,29.79
2018-10-11T14:37:16.018Z,29.76
2018-10-11T14:39:44.922Z,29.68
2018-10-11T14:42:14.026Z,29.95
2018-10-11T14:44:43.030Z,29.64
2018-10-11T14:47:12.125Z,29.55
2018-10-11T14:49:41.135Z,30.54
2018-10-11T14:52:10.324Z,30.99
2018-10-11T14:54:39.429Z,30.21
2018-10-11T14:57:08.473Z,30.01
2018-10-11T14:59:37.578Z,30.54
2018-10-11T15:02:06.488Z,30.65
2018-10-11T15:04:35.472Z,31.21
2018-10-11T15:07:04.471Z,31.13
2018-10-11T15:09:33.464Z,30.59
2018-10-11T15:12:02.494Z,30.62
2018-10-11T15:14:31.563Z,31.38
2018-10-11T15:17:00.573Z,31.23
2018-10-11T15:19:29.532Z,31.63
2018-10-11T15:21:58.505Z,31.81
2018-10-11T15:24:27.530Z,31.93
2018-10-11T15:26:56.573Z,32.87
2018-10-11T15:29:25.684Z,33.81
2018-10-11T15:31:54.623Z,33.79
2018-10-11T15:34:23.619Z,33.74
2018-10-11T15:36:52.658Z,33.60
2018-10-11T15:39:21.679Z,33.80
2018-10-11T15:41:50.743Z,34.13
2018-10-11T15:44:19.823Z,34.10
2018-10-11T15:46:48.923Z,34.55
2018-10-11T15:49:18.048Z,34.50
2018-10-11T15:51:46.970Z,34.79
2018-10-11T15:54:15.977Z,35.24
2018-10-11T15:56:44.976Z,35.50
2018-10-11T15:59:14.059Z,36.05
2018-10-11T16:01:43.064Z,36.18
2018-10-11T16:04:12.026Z,35.76
2018-10-11T16:06:41.154Z,36.15
2018-10-11T16:09:10.760Z,36.22
2018-10-11T16:11:39.641Z,36.70
2018-10-11T16:14:08.670Z,36.80
2018-10-11T16:16:37.663Z,37.01
2018-10-11T16:19:06.858Z,36.91
2018-10-11T16:21:35.908Z,36.89
2018-10-11T16:24:04.952Z,37.67
2018-10-11T16:26:33.936Z,37.46
2018-10-11T16:29:02.896Z,38.58
2018-10-11T16:31:31.972Z,37.96
2018-10-11T16:34:01.178Z,38.38
2018-10-11T16:36:30.382Z,38.63
2018-10-11T16:38:59.447Z,39.53
2018-10-11T16:41:28.381Z,39.55
2018-10-11T16:43:57.381Z,39.14
2018-10-11T16:46:26.365Z,39.43
2018-10-11T16:48:55.371Z,39.15
2018-10-11T16:51:24.341Z,39.31
2018-10-11T16:53:53.332Z,39.38
2018-10-11T16:56:22.341Z,40.57
2018-10-11T16:58:51.323Z,40.71
2018-10-11T17:01:20.463Z,41.10
2018-10-11T17:03:49.436Z,40.33
2018-10-11T17:06:18.445Z,41.55
2018-10-11T17:08:47.422Z,41.08
2018-10-11T17:11:16.432Z,41.52
2018-10-11T17:13:45.398Z,42.08
2018-10-11T17:16:14.647Z,41.61
2018-10-11T17:18:43.718Z,42.00
2018-10-11T17:21:12.734Z,41.71
2018-10-11T17:23:41.828Z,42.82
2018-10-11T17:26:10.768Z,43.26
2018-10-11T17:28:39.849Z,43.23
2018-10-11T17:31:09.070Z,42.97
2018-10-11T17:33:38.144Z,43.65
2018-10-11T17:36:07.707Z,45.10
2018-10-11T17:38:36.968Z,44.83
2018-10-11T17:41:06.270Z,44.17
2018-10-11T17:43:35.460Z,44.64
2018-10-11T17:46:04.650Z,45.42
2018-10-11T17:48:33.836Z,46.33
2018-10-11T17:51:02.983Z,45.58
2018-10-11T17:53:31.987Z,45.82
2018-10-11T17:56:01.105Z,46.34
2018-10-11T17:58:30.135Z,46.14
2018-10-11T18:00:59.183Z,46.35
2018-10-11T18:03:29.035Z,46.75
2018-10-11T18:05:58.094Z,46.77
2018-10-11T18:08:27.054Z,47.46
2018-10-11T18:10:56.175Z,47.06
2018-10-11T18:13:25.239Z,47.12
2018-10-11T18:15:54.281Z,47.18
2018-10-11T18:18:23.258Z,47.54
2018-10-11T18:20:52.283Z,47.07
2018-10-11T18:23:21.333Z,46.48
2018-10-11T18:25:50.366Z,47.04
2018-10-11T18:28:19.418Z,47.23
2018-10-11T18:30:48.502Z,48.31
2018-10-11T18:33:17.532Z,48.46
2018-10-11T18:35:46.824Z,51.21
2018-10-11T18:38:15.733Z,50.40
2018-10-11T18:40:44.726Z,50.26
2018-10-11T18:43:13.738Z,51.33
2018-10-11T18:45:43.061Z,51.34
2018-10-11T18:48:12.150Z,52.60
2018-10-11T18:50:41.301Z,52.36
2018-10-11T18:53:10.351Z,52.81
2018-10-11T18:55:39.416Z,52.51
2018-10-11T18:58:08.506Z,53.44
2018-10-11T19:00:37.712Z,53.65
2018-10-11T19:03:07.236Z,53.06
2018-10-11T19:05:36.270Z,52.48
2018-10-11T19:08:05.309Z,52.60
2018-10-11T19:10:34.328Z,52.42
2018-10-11T19:13:03.688Z,51.30
2018-10-11T19:15:32.690Z,51.15
2018-10-11T19:18:01.699Z,51.46
2018-10-11T19:20:30.675Z,50.67
2018-10-11T19:22:59.709Z,50.59
2018-10-11T19:25:28.792Z,50.25
2018-10-11T19:27:57.981Z,50.11
2018-10-11T19:30:26.995Z,50.56
2018-10-11T19:32:56.072Z,49.98
2018-10-11T19:35:25.045Z,50.65
2018-10-11T19:37:54.099Z,50.91
2018-10-11T19:40:23.211Z,50.63
2018-10-11T19:42:52.237Z,50.91
2018-10-11T19:45:21.232Z,50.87
2018-10-11T19:47:50.228Z,51.60
2018-10-11T19:50:19.223Z,51.93
2018-10-11T19:52:48.206Z,52.21
2018-10-11T19:55:17.198Z,51.67
2018-10-11T19:57:46.556Z,52.09
2018-10-11T20:00:15.760Z,52.50
2018-10-11T20:02:44.800Z,53.03
2018-10-11T20:05:13.792Z,52.60
2018-10-11T20:07:42.795Z,52.55
2018-10-11T20:10:11.777Z,53.12
2018-10-11T20:12:40.836Z,53.47
2018-10-11T20:15:09.967Z,53.85
2018-10-11T20:17:39.012Z,54.21
2018-10-11T20:20:08.071Z,54.04
2018-10-11T20:22:37.096Z,53.73
2018-10-11T20:25:06.655Z,53.97
2018-10-11T20:27:35.914Z,54.08
2018-10-11T20:30:05.647Z,55.12
2018-10-11T20:32:34.839Z,54.82
2018-10-11T20:35:04.191Z,54.74
2018-10-11T20:37:33.826Z,55.55
2018-10-11T20:40:03.174Z,55.76
2018-10-11T20:42:32.166Z,55.72
2018-10-11T20:45:01.152Z,55.31
2018-10-11T20:47:30.257Z,55.38
2018-10-11T20:49:59.349Z,55.35
2018-10-11T20:52:28.750Z,55.87
2018-10-11T20:54:57.794Z,56.11
2018-10-11T20:57:26.833Z,55.65
2018-10-11T20:59:55.796Z,55.88
2018-10-11T21:02:24.885Z,55.96
2018-10-11T21:04:53.937Z,57.19
2018-10-11T21:07:22.923Z,57.06
2018-10-11T21:09:52.128Z,56.24
2018-10-11T21:12:21.144Z,56.58
2018-10-11T21:14:50.149Z,57.39
2018-10-11T21:17:19.155Z,56.92
2018-10-11T21:19:48.249Z,58.05
2018-10-11T21:22:17.301Z,57.39
2018-10-11T21:24:46.364Z,58.00
2018-10-11T21:27:15.460Z,58.71
2018-10-11T21:29:44.565Z,58.73
2018-10-11T21:32:13.616Z,58.07
2018-10-11T21:34:42.625Z,58.14
2018-10-11T21:37:11.648Z,58.66
2018-10-11T21:39:40.761Z,59.28
2018-10-11T21:42:09.816Z,59.03
2018-10-11T21:44:38.958Z,59.64
2018-10-11T21:47:08.110Z,59.70
2018-10-11T21:49:37.213Z,60.21
2018-10-11T21:52:06.197Z,60.20
2018-10-11T21:54:35.165Z,60.54
2018-10-11T21:57:04.129Z,59.56
2018-10-11T21:59:33.301Z,60.39
2018-10-11T22:02:02.435Z,60.37
2018-10-11T22:04:31.467Z,60.52
2018-10-11T22:07:00.539Z,60.68
2018-10-11T22:09:29.575Z,60.46
2018-10-11T22:11:58.667Z,60.71
2018-10-11T22:14:27.778Z,60.45
2018-10-11T22:16:57.002Z,60.15
2018-10-11T22:19:26.072Z,60.74
2018-10-11T22:21:55.142Z,61.55
2018-10-11T22:24:24.199Z,61.72
2018-10-11T22:26:53.241Z,60.94
2018-10-11T22:29:22.244Z,61.85
2018-10-11T22:31:51.318Z,61.23
2018-10-11T22:34:20.280Z,61.61
2018-10-11T22:36:49.391Z,61.63
2018-10-11T22:39:18.306Z,62.13
2018-10-11T22:41:47.302Z,61.74
2018-10-11T22:44:16.383Z,62.46
2018-10-11T22:46:45.354Z,62.97
2018-10-11T22:49:14.416Z,62.58
2018-10-11T22:51:43.548Z,62.89
2018-10-11T22:54:12.603Z,62.61
2018-10-11T22:56:41.649Z,62.54
2018-10-11T22:59:10.740Z,62.65
2018-10-11T23:01:39.743Z,63.43
2018-10-11T23:04:08.748Z,62.95
2018-10-11T23:06:37.822Z,63.25
2018-10-11T23:09:07.740Z,62.92
2018-10-11T23:11:36.761Z,63.30
2018-10-11T23:14:06.020Z,63.29
2018-10-11T23:16:35.024Z,63.25
2018-10-11T23:19:04.067Z,62.87
2018-10-11T23:21:33.007Z,63.37
2018-10-11T23:24:02.068Z,63.52
2018-10-11T23:26:31.098Z,63.43
2018-10-11T23:29:00.103Z,63.03
2018-10-11T23:31:29.123Z,63.61
2018-10-11T23:33:58.123Z,62.97
2018-10-11T23:36:27.096Z,63.70
2018-10-11T23:38:56.117Z,63.60
2018-10-11T23:41:25.203Z,62.32
2018-10-11T23:43:54.402Z,63.08
2018-10-11T23:46:23.656Z,63.17
2018-10-11T23:48:52.679Z,63.14
2018-10-11T23:51:21.795Z,63.45
2018-10-11T23:53:50.841Z,62.96
2018-10-11T23:56:19.877Z,62.94
2018-10-11T23:58:48.871Z,63.69
